Sc Draco — VRQF3 — position and weather

sailwx.info

Track history (hours):
 
Tides and Currents Weather Stations Pressure Air Temp Water Temp Dewpoint Dewpoint Depression Visibility Wind Speed Wind Dir Waves Ship Positions

Sc Draco

Last reported at 2017-Nov-16 16:36 UTC. Time now 2017-Nov-19 08:53 UTC.
Position N 01°17' E 103°22'.

Length 182 m; draft 8 m.

Type: Ship (hazmat cat B). MMSI: 477439800.

Date/timePositionNaut miles runAvg speedWind from/ knotsBaromVisibWave heightAir tempDewpointWater temp
2017-Nov-16 16:36N 01°17' E 103°22'210.5
2017-Nov-16 16:24N 01°16' E 103°23'511.4
2017-Nov-16 16:00N 01°14' E 103°27'611.7
2017-Nov-16 15:30N 01°13' E 103°33'611.8
2017-Nov-16 15:00N 01°11' E 103°39'510.8
2017-Nov-16 14:30N 01°09' E 103°43'510.1
2017-Nov-16 14:01N 01°11' E 103°48'713.1
2017-Nov-16 13:30N 01°13' E 103°54'612.1
2017-Nov-16 13:00N 01°15' E 103°60'  
2017-Nov-11 11:04N 22°20' E 119°47'413.2
2017-Nov-11 10:48N 22°23' E 119°49'713.4
2017-Nov-11 10:18N 22°30' E 119°50'413.4
2017-Nov-11 10:00N 22°33' E 119°52'713.9
2017-Nov-11 09:30N 22°40' E 119°53'714.2
2017-Nov-11 08:59N 22°48' E 119°53'  
Track history (hours):
 
Tides and Currents Weather Stations Pressure Air Temp Water Temp Dewpoint Dewpoint Depression Visibility Wind Speed Wind Dir Waves Ship Positions

Sc Draco

Last reported at 2017-Nov-16 16:36 UTC. Time now 2017-Nov-19 08:53 UTC.
Position N 01°17' E 103°22'.

Length 182 m; draft 8 m.

Type: Ship (hazmat cat B). MMSI: 477439800.

Date/timePositionNaut miles runAvg speedWind from/ knotsBaromVisibWave heightAir tempDewpointWater temp
2017-Nov-16 16:36N 01°17' E 103°22'210.5
2017-Nov-16 16:24N 01°16' E 103°23'511.4
2017-Nov-16 16:00N 01°14' E 103°27'611.7
2017-Nov-16 15:30N 01°13' E 103°33'611.8
2017-Nov-16 15:00N 01°11' E 103°39'510.8
2017-Nov-16 14:30N 01°09' E 103°43'510.1
2017-Nov-16 14:01N 01°11' E 103°48'713.1
2017-Nov-16 13:30N 01°13' E 103°54'612.1
2017-Nov-16 13:00N 01°15' E 103°60'  
2017-Nov-11 11:04N 22°20' E 119°47'413.2
2017-Nov-11 10:48N 22°23' E 119°49'713.4
2017-Nov-11 10:18N 22°30' E 119°50'413.4
2017-Nov-11 10:00N 22°33' E 119°52'713.9
2017-Nov-11 09:30N 22°40' E 119°53'714.2
2017-Nov-11 08:59N 22°48' E 119°53'  

Dump ship's entire track history